createdAt,value
2022-10-13T00:01:24.795Z,83.73
2022-10-13T00:06:30.358Z,82.38
2022-10-13T00:11:34.435Z,81.86
2022-10-13T00:16:38.498Z,81.88
2022-10-13T00:21:43.985Z,82.27
2022-10-13T00:26:47.928Z,83.05
2022-10-13T00:31:56.213Z,84.26
2022-10-13T00:37:01.602Z,83.26
2022-10-13T00:42:08.091Z,81.92
2022-10-13T00:47:12.076Z,82.36
2022-10-13T00:52:20.008Z,82.75
2022-10-13T00:57:24.838Z,83.73
2022-10-13T01:02:33.347Z,84.12
2022-10-13T01:07:40.868Z,84.33
2022-10-13T01:12:53.830Z,84.04
2022-10-13T01:18:05.868Z,84.24
2022-10-13T01:23:27.500Z,85.11
2022-10-13T01:28:56.033Z,83.36
2022-10-13T01:34:11.880Z,83.19
2022-10-13T01:39:23.455Z,82.28
2022-10-13T01:44:33.282Z,80.72
2022-10-13T01:49:40.260Z,80.40
2022-10-13T01:54:49.126Z,81.67
2022-10-13T01:59:53.254Z,82.68
2022-10-13T02:05:08.669Z,83.41
2022-10-13T02:10:18.969Z,82.32
2022-10-13T02:15:30.152Z,82.41
2022-10-13T02:20:42.196Z,82.41
2022-10-13T02:25:47.913Z,82.72
2022-10-13T02:30:52.351Z,83.22
2022-10-13T02:35:57.670Z,85.14
2022-10-13T02:41:02.735Z,83.66
2022-10-13T02:46:07.060Z,82.77
2022-10-13T02:51:12.412Z,83.38
2022-10-13T02:56:16.382Z,81.16
2022-10-13T03:01:20.328Z,79.75
2022-10-13T03:06:26.389Z,79.77
2022-10-13T03:11:31.056Z,79.27
2022-10-13T03:16:35.030Z,79.50
2022-10-13T03:21:40.821Z,79.81
2022-10-13T03:26:45.096Z,79.02
2022-10-13T03:31:49.156Z,78.25
2022-10-13T03:36:54.488Z,80.73
2022-10-13T03:41:58.814Z,80.38
2022-10-13T03:47:03.063Z,79.60
2022-10-13T03:52:08.943Z,79.96
2022-10-13T03:57:13.690Z,81.49
2022-10-13T04:02:18.291Z,81.31
2022-10-13T04:07:24.372Z,81.51
2022-10-13T04:12:28.522Z,81.57
2022-10-13T04:17:32.693Z,81.57
2022-10-13T04:22:38.443Z,82.83
2022-10-13T04:27:42.408Z,83.41
2022-10-13T04:32:47.636Z,81.94
2022-10-13T04:37:54.400Z,81.32
2022-10-13T04:42:58.621Z,80.79
2022-10-13T04:48:02.648Z,81.60
2022-10-13T04:53:09.882Z,80.48
2022-10-13T04:58:14.091Z,80.67
2022-10-13T05:03:18.098Z,80.50
2022-10-13T05:08:23.479Z,79.56
2022-10-13T05:13:28.653Z,78.17
2022-10-13T05:18:34.476Z,77.96
2022-10-13T05:23:40.474Z,79.20
2022-10-13T05:28:45.220Z,78.64
2022-10-13T05:33:50.014Z,78.55
2022-10-13T05:39:02.300Z,78.95
2022-10-13T05:44:09.267Z,80.05
2022-10-13T05:49:19.317Z,79.81
2022-10-13T05:54:30.125Z,79.74
2022-10-13T05:59:38.927Z,79.98
2022-10-13T06:04:46.598Z,80.83
2022-10-13T06:09:52.388Z,79.74
2022-10-13T06:14:56.519Z,78.05
2022-10-13T06:20:00.919Z,76.61
2022-10-13T06:25:10.066Z,76.37
2022-10-13T06:30:14.756Z,75.54
2022-10-13T06:35:18.875Z,74.48
2022-10-13T06:40:24.350Z,73.95
2022-10-13T06:45:28.467Z,72.63
2022-10-13T06:50:33.377Z,70.79
2022-10-13T06:55:39.895Z,70.21
2022-10-13T07:00:44.144Z,70.01
2022-10-13T07:05:48.702Z,69.61
2022-10-13T07:10:54.716Z,67.91
2022-10-13T07:15:58.706Z,64.56
2022-10-13T07:21:03.268Z,60.98
2022-10-13T07:26:10.920Z,57.73
2022-10-13T07:31:17.185Z,55.77
2022-10-13T07:36:21.287Z,55.10
2022-10-13T07:41:26.714Z,57.96
2022-10-13T07:46:34.124Z,60.62
2022-10-13T07:51:38.177Z,61.05
2022-10-13T07:56:45.628Z,58.04
2022-10-13T08:01:49.680Z,56.73
2022-10-13T08:06:53.644Z,54.89
2022-10-13T08:12:00.768Z,56.15
2022-10-13T08:17:05.958Z,54.60
2022-10-13T08:22:10.842Z,56.01
2022-10-13T08:27:21.943Z,54.29
2022-10-13T08:32:25.899Z,55.01
2022-10-13T08:37:29.818Z,54.61
2022-10-13T08:42:36.113Z,53.49
2022-10-13T08:47:46.231Z,51.22
2022-10-13T08:52:53.936Z,49.77
2022-10-13T08:57:59.728Z,49.96
2022-10-13T09:03:20.927Z,48.63
2022-10-13T09:08:28.982Z,50.37
2022-10-13T09:13:34.294Z,48.04
2022-10-13T09:18:38.662Z,47.38
2022-10-13T09:23:46.918Z,45.30
2022-10-13T09:28:53.850Z,45.56
2022-10-13T09:34:02.559Z,43.54
2022-10-13T09:39:10.832Z,43.15
2022-10-13T09:44:24.248Z,40.57
2022-10-13T09:49:42.741Z,38.18
2022-10-13T09:54:50.099Z,36.79
2022-10-13T10:00:03.784Z,37.93
2022-10-13T10:05:25.146Z,36.42
2022-10-13T10:10:36.026Z,35.89
2022-10-13T10:15:56.675Z,35.15
2022-10-13T10:21:07.828Z,36.60
2022-10-13T10:26:22.889Z,36.15
2022-10-13T10:31:43.908Z,35.85
2022-10-13T10:36:54.883Z,36.66
2022-10-13T10:42:08.486Z,35.99
2022-10-13T10:47:23.879Z,34.54
2022-10-13T10:52:35.590Z,34.80
2022-10-13T10:58:05.469Z,35.06
2022-10-13T11:03:21.200Z,34.47
2022-10-13T11:08:31.324Z,36.57
2022-10-13T11:13:52.498Z,37.15
2022-10-13T11:19:08.343Z,38.02
2022-10-13T11:24:47.444Z,37.01
2022-10-13T11:29:56.160Z,36.60
2022-10-13T11:35:03.761Z,36.37
2022-10-13T11:40:23.676Z,36.48
2022-10-13T11:46:00.806Z,38.38
2022-10-13T11:51:44.564Z,37.89
2022-10-13T11:56:51.533Z,36.86
2022-10-13T12:01:58.226Z,37.16
2022-10-13T12:07:06.258Z,37.93
2022-10-13T12:12:16.066Z,36.96
2022-10-13T12:17:23.841Z,37.18
2022-10-13T12:22:30.812Z,39.27
2022-10-13T12:27:44.665Z,43.02
2022-10-13T12:32:51.657Z,45.25
2022-10-13T12:38:01.207Z,44.81
2022-10-13T12:43:05.721Z,45.01
2022-10-13T12:48:30.287Z,45.29
2022-10-13T12:53:35.763Z,46.85
2022-10-13T12:58:44.583Z,48.99
2022-10-13T13:03:56.506Z,50.25
2022-10-13T13:09:21.711Z,50.05
2022-10-13T13:14:36.892Z,51.02
2022-10-13T13:19:42.553Z,51.44
2022-10-13T13:24:51.714Z,51.30
2022-10-13T13:29:57.100Z,52.31
2022-10-13T13:35:01.804Z,53.34
2022-10-13T13:40:19.142Z,54.45
2022-10-13T13:45:25.445Z,56.58
2022-10-13T13:50:35.116Z,57.31
2022-10-13T13:55:40.877Z,59.22
2022-10-13T14:00:47.059Z,60.89
2022-10-13T14:05:51.589Z,64.19
2022-10-13T14:10:57.576Z,65.02
2022-10-13T14:16:03.901Z,65.84
2022-10-13T14:21:08.422Z,66.53
2022-10-13T14:26:14.444Z,70.55
2022-10-13T14:31:18.461Z,73.62
2022-10-13T14:36:24.138Z,71.47
2022-10-13T14:41:29.527Z,71.40
2022-10-13T14:46:33.826Z,75.90
2022-10-13T14:51:38.770Z,74.66
2022-10-13T14:56:45.535Z,73.22
2022-10-13T15:01:50.482Z,75.14
2022-10-13T15:06:54.860Z,74.70
2022-10-13T15:12:00.772Z,74.52
2022-10-13T15:17:05.663Z,76.00
2022-10-13T15:22:10.045Z,76.19
2022-10-13T15:27:18.690Z,75.55
2022-10-13T15:32:24.800Z,79.72
2022-10-13T15:37:31.992Z,79.69
2022-10-13T15:42:37.400Z,80.17
2022-10-13T15:47:41.675Z,79.68
2022-10-13T15:52:47.451Z,80.24
2022-10-13T15:57:54.029Z,82.14
2022-10-13T16:02:58.130Z,82.18
2022-10-13T16:08:02.401Z,83.68
2022-10-13T16:13:08.949Z,84.18
2022-10-13T16:18:16.268Z,86.21
2022-10-13T16:23:20.990Z,87.07
2022-10-13T16:28:35.193Z,87.29
2022-10-13T16:33:42.091Z,85.66
2022-10-13T16:38:50.228Z,83.89
2022-10-13T16:43:57.423Z,84.62
2022-10-13T16:49:03.330Z,84.39
2022-10-13T16:54:10.240Z,85.67
2022-10-13T16:59:20.735Z,85.56
2022-10-13T17:04:26.554Z,85.72
2022-10-13T17:09:32.515Z,86.69
2022-10-13T17:14:41.288Z,86.76
2022-10-13T17:19:47.984Z,86.66
2022-10-13T17:24:52.457Z,86.01
2022-10-13T17:29:57.939Z,85.76
2022-10-13T17:35:03.224Z,85.97
2022-10-13T17:40:09.582Z,85.67
2022-10-13T17:45:24.964Z,85.61
2022-10-13T17:50:44.588Z,86.16
2022-10-13T17:56:05.547Z,86.31
2022-10-13T18:01:29.407Z,84.92
2022-10-13T18:06:38.655Z,85.07
2022-10-13T18:11:50.288Z,86.55
2022-10-13T18:16:57.025Z,87.78
2022-10-13T18:22:01.402Z,85.76
2022-10-13T18:27:08.899Z,86.24
2022-10-13T18:32:16.144Z,87.83
2022-10-13T18:37:21.207Z,88.51
2022-10-13T18:42:28.903Z,88.73
2022-10-13T18:47:37.001Z,89.33
2022-10-13T18:52:41.920Z,89.15
2022-10-13T18:57:48.406Z,87.63
2022-10-13T19:02:53.875Z,85.19
2022-10-13T19:07:59.252Z,85.35
2022-10-13T19:13:03.517Z,87.06
2022-10-13T19:18:09.387Z,85.99
2022-10-13T19:23:18.181Z,85.64
2022-10-13T19:28:22.769Z,84.32
2022-10-13T19:33:32.927Z,84.67
2022-10-13T19:38:38.052Z,84.94
2022-10-13T19:43:42.169Z,86.63
2022-10-13T19:48:47.667Z,85.12
2022-10-13T19:53:51.641Z,83.92
2022-10-13T19:58:56.484Z,83.97
2022-10-13T20:04:01.996Z,84.45
2022-10-13T20:09:06.750Z,83.40
2022-10-13T20:14:10.862Z,83.74
2022-10-13T20:19:19.578Z,82.79
2022-10-13T20:24:26.655Z,84.45
2022-10-13T20:29:31.013Z,83.74
2022-10-13T20:34:37.501Z,83.26
2022-10-13T20:39:41.816Z,85.13
2022-10-13T20:44:49.210Z,85.40
2022-10-13T20:49:54.925Z,84.94
2022-10-13T20:55:02.020Z,82.84
2022-10-13T21:00:11.718Z,81.63
2022-10-13T21:05:19.082Z,81.58
2022-10-13T21:10:23.263Z,81.11
2022-10-13T21:15:27.318Z,80.77
2022-10-13T21:20:34.552Z,82.02
2022-10-13T21:25:39.800Z,82.59
2022-10-13T21:30:43.978Z,81.65
2022-10-13T21:35:49.493Z,81.88
2022-10-13T21:40:54.127Z,82.68
2022-10-13T21:45:58.872Z,80.52
2022-10-13T21:51:13.497Z,80.54
2022-10-13T21:56:17.845Z,80.51
2022-10-13T22:01:22.383Z,78.78
2022-10-13T22:06:28.856Z,77.61
2022-10-13T22:11:37.013Z,76.65
2022-10-13T22:16:49.980Z,75.93
2022-10-13T22:21:55.346Z,75.54
2022-10-13T22:26:59.694Z,75.79
2022-10-13T22:32:03.984Z,76.08
2022-10-13T22:37:09.358Z,74.18
2022-10-13T22:42:14.048Z,73.54
2022-10-13T22:47:18.296Z,73.23
2022-10-13T22:52:23.940Z,73.11
2022-10-13T22:57:30.311Z,73.24
2022-10-13T23:02:34.570Z,73.07
2022-10-13T23:07:39.992Z,74.47
2022-10-13T23:12:45.213Z,71.84
2022-10-13T23:17:49.311Z,71.88
2022-10-13T23:22:54.922Z,72.36
2022-10-13T23:27:59.574Z,73.32
2022-10-13T23:33:03.678Z,75.34
2022-10-13T23:38:10.227Z,73.00
2022-10-13T23:43:14.786Z,73.22
2022-10-13T23:48:18.720Z,72.90
2022-10-13T23:53:24.174Z,71.45
2022-10-13T23:58:28.238Z,71.55
